Time;durP1;ratioP1;P1;durP2;ratioP2;P2;SDS_P1;SDS_P2;PMS_P1;PMS_P2;Temp;Humidity;BMP_temperature;BMP_pressure;BME280_temperature;BME280_humidity;BME280_pressure;Samples;Min_cycle;Max_cycle;Signal;HPM_P1;HPM_P2
2021/12/21 00:02:54;;;;;;;1.90;1.80;;;;;;;-4.86;57.47;102605.44;6029391;29;20195;-77
2021/12/21 00:05:59;;;;;;;1.60;1.60;;;;;;;-4.69;57.23;102613.22;6029517;29;20199;-77
2021/12/21 00:09:04;;;;;;;1.57;1.57;;;;;;;-5.17;58.40;102616.44;6028853;29;20341;-77
2021/12/21 00:12:14;;;;;;;1.50;1.40;;;;;;;-5.72;59.43;102619.91;6028074;29;20344;-78
2021/12/21 00:15:25;;;;;;;1.53;1.53;;;;;;;-5.31;58.58;102620.84;6028995;29;20429;-77
2021/12/21 00:18:36;;;;;;;1.30;1.30;;;;;;;-5.22;58.02;102607.84;6028885;29;20218;-77
2021/12/21 00:21:43;;;;;;;1.10;1.10;;;;;;;-5.24;58.24;102607.06;6029195;29;20231;-77
2021/12/21 00:24:48;;;;;;;1.50;1.40;;;;;;;-5.26;58.82;102602.66;6028404;29;20262;-77
2021/12/21 00:27:53;;;;;;;1.63;1.53;;;;;;;-5.05;57.41;102602.28;6027784;29;20192;-77
2021/12/21 00:30:59;;;;;;;1.60;1.60;;;;;;;-5.53;58.92;102593.72;6028837;29;20215;-77
2021/12/21 00:34:07;;;;;;;1.20;1.20;;;;;;;-5.67;59.58;102595.56;6028350;29;20236;-77
2021/12/21 00:37:11;;;;;;;1.43;1.43;;;;;;;-5.52;60.06;102589.22;6028788;29;20192;-77
2021/12/21 00:40:15;;;;;;;4.87;1.30;;;;;;;-5.58;60.20;102590.47;6028089;29;20218;-77
2021/12/21 00:43:20;;;;;;;3.00;1.50;;;;;;;-5.47;59.36;102571.06;6027504;29;20192;-77
2021/12/21 00:46:26;;;;;;;1.40;1.40;;;;;;;-5.58;59.85;102573.56;6028707;29;20192;-77
2021/12/21 00:49:30;;;;;;;1.57;1.57;;;;;;;-5.55;59.92;102558.16;6027364;29;20203;-77
2021/12/21 00:52:34;;;;;;;1.50;1.50;;;;;;;-5.63;59.41;102560.47;6027162;29;20192;-78
2021/12/21 00:55:39;;;;;;;1.30;1.30;;;;;;;-5.51;58.78;102570.38;6028162;29;20270;-77
2021/12/21 00:58:43;;;;;;;1.40;1.40;;;;;;;-5.59;58.57;102561.97;6026712;29;20307;-77
2021/12/21 01:01:49;;;;;;;1.30;1.30;;;;;;;-5.54;58.66;102572.41;6027895;29;20195;-77
2021/12/21 01:04:56;;;;;;;1.70;1.70;;;;;;;-5.44;58.45;102579.75;6027912;29;20206;-77
2021/12/21 01:08:03;;;;;;;1.50;1.50;;;;;;;-5.10;57.80;102575.75;6027012;29;20281;-77
2021/12/21 01:11:13;;;;;;;1.10;1.10;;;;;;;-5.62;57.93;102583.59;6028441;29;20238;-77
2021/12/21 01:14:50;;;;;;;1.70;1.70;;;;;;;-5.69;58.40;102576.91;6029050;29;20239;-77
2021/12/21 01:18:00;;;;;;;1.60;1.60;;;;;;;-5.50;58.42;102588.19;6028896;29;20202;-77
2021/12/21 01:21:13;;;;;;;1.47;1.47;;;;;;;-5.73;57.74;102575.38;6028253;29;20215;-77
2021/12/21 01:24:32;;;;;;;1.10;1.10;;;;;;;-5.80;58.32;102574.06;6027940;29;20195;-77
2021/12/21 01:27:50;;;;;;;1.30;1.30;;;;;;;-5.38;57.56;102581.16;6028866;29;20203;-77
2021/12/21 01:31:01;;;;;;;1.40;1.40;;;;;;;-5.76;57.37;102575.56;6029127;29;20203;-77
2021/12/21 01:34:21;;;;;;;1.50;1.50;;;;;;;-5.86;56.74;102577.09;6028266;29;20208;-77
2021/12/21 01:37:33;;;;;;;1.27;1.27;;;;;;;-5.32;55.30;102580.78;6028452;29;20226;-77
2021/12/21 01:40:46;;;;;;;1.60;1.60;;;;;;;-5.46;55.13;102589.69;6028361;29;20230;-77
2021/12/21 01:44:02;;;;;;;1.10;1.10;;;;;;;-5.48;55.44;102586.25;6028492;29;20267;-77
2021/12/21 01:50:30;;;;;;;1.33;1.30;;;;;;;-5.58;53.99;102593.16;6028694;29;20227;-77
2021/12/21 01:53:34;;;;;;;1.27;1.27;;;;;;;-5.41;53.69;102582.22;6027320;29;20194;-77
2021/12/21 01:56:39;;;;;;;1.20;1.20;;;;;;;-5.38;52.30;102583.84;6027374;29;20509;-79
2021/12/21 01:59:44;;;;;;;1.30;1.30;;;;;;;-5.60;54.14;102579.00;6028060;29;20282;-77
2021/12/21 02:02:50;;;;;;;1.10;1.10;;;;;;;-5.33;53.88;102579.91;6027015;29;20197;-77
2021/12/21 02:05:55;;;;;;;1.30;1.30;;;;;;;-5.44;55.00;102587.78;6027746;29;20267;-77
2021/12/21 02:08:59;;;;;;;1.37;1.37;;;;;;;-5.70;54.61;102575.19;6026991;29;20370;-77
2021/12/21 02:12:06;;;;;;;1.07;1.07;;;;;;;-5.71;55.34;102584.16;6026568;29;20245;-77
2021/12/21 02:15:12;;;;;;;1.77;1.77;;;;;;;-5.82;54.92;102575.94;6027737;29;20202;-77
2021/12/21 02:18:34;;;;;;;1.10;1.10;;;;;;;-5.77;54.88;102579.19;6026672;29;20530;-77
2021/12/21 02:21:45;;;;;;;1.20;1.20;;;;;;;-6.12;55.30;102584.03;6027756;29;20219;-77
2021/12/21 02:24:59;;;;;;;1.30;1.20;;;;;;;-5.96;53.59;102579.50;6026864;29;20226;-77
2021/12/21 02:28:22;;;;;;;1.20;1.20;;;;;;;-6.04;54.00;102586.25;6027608;29;20195;-77
2021/12/21 02:31:27;;;;;;;1.57;1.57;;;;;;;-5.93;54.26;102573.09;6027305;29;20202;-77
2021/12/21 02:34:31;;;;;;;1.30;1.30;;;;;;;-5.97;53.95;102568.88;6026255;29;20194;-78
2021/12/21 02:37:37;;;;;;;1.10;1.10;;;;;;;-6.24;55.31;102562.53;6027087;29;20240;-78
2021/12/21 02:40:42;;;;;;;1.40;1.40;;;;;;;-5.70;54.20;102569.84;6026702;29;20364;-77
2021/12/21 02:43:46;;;;;;;1.00;1.00;;;;;;;-5.56;54.17;102561.78;6026536;29;20202;-78
2021/12/21 02:46:51;;;;;;;1.30;1.30;;;;;;;-5.71;54.10;102557.41;6026531;29;20194;-77
2021/12/21 02:49:55;;;;;;;0.90;0.90;;;;;;;-5.81;53.68;102560.75;6026315;29;20247;-77
2021/12/21 02:53:03;;;;;;;1.10;1.10;;;;;;;-5.92;54.63;102569.44;6026310;29;20203;-77
2021/12/21 02:56:07;;;;;;;1.13;1.13;;;;;;;-5.59;54.13;102569.16;6025203;29;20195;-77
2021/12/21 02:59:13;;;;;;;1.20;1.20;;;;;;;-5.77;53.93;102567.66;6026126;29;20298;-77
2021/12/21 03:02:17;;;;;;;1.30;1.30;;;;;;;-5.72;54.26;102555.69;6026043;29;20263;-77
2021/12/21 03:05:22;;;;;;;1.00;1.00;;;;;;;-5.94;54.09;102560.66;6025616;29;20195;-77
2021/12/21 03:08:37;;;;;;;2.50;1.40;;;;;;;-5.84;54.17;102561.81;6024689;29;20284;-77
2021/12/21 03:11:55;;;;;;;1.10;1.10;;;;;;;-5.54;53.03;102559.88;6025038;29;20432;-77
2021/12/21 03:15:00;;;;;;;1.20;1.20;;;;;;;-6.12;54.30;102568.00;6025860;29;20255;-77
2021/12/21 03:18:04;;;;;;;1.27;1.27;;;;;;;-5.85;54.36;102560.09;6026215;29;20226;-77
2021/12/21 03:21:09;;;;;;;0.90;0.90;;;;;;;-5.95;54.13;102558.91;6025546;29;20226;-77
2021/12/21 03:24:14;;;;;;;1.07;1.07;;;;;;;-5.62;54.19;102556.84;6024547;29;20242;-77
2021/12/21 03:27:19;;;;;;;1.40;1.40;;;;;;;-6.15;54.99;102567.31;6024756;29;20205;-77
2021/12/21 03:30:23;;;;;;;1.40;1.40;;;;;;;-6.09;55.12;102567.81;6024794;29;20430;-77
2021/12/21 03:33:27;;;;;;;1.13;1.13;;;;;;;-5.94;54.15;102566.00;6025575;29;20236;-77
2021/12/21 03:36:32;;;;;;;1.10;1.10;;;;;;;-6.13;53.97;102565.44;6025737;29;20270;-77
2021/12/21 03:39:38;;;;;;;1.27;1.27;;;;;;;-5.98;53.70;102556.47;6025078;29;20255;-77
2021/12/21 03:42:48;;;;;;;1.17;1.17;;;;;;;-6.14;54.22;102553.88;6025532;29;20219;-77
2021/12/21 03:46:00;;;;;;;1.33;1.33;;;;;;;-5.94;53.82;102560.66;6025683;29;20194;-77
2021/12/21 03:49:27;;;;;;;1.40;1.40;;;;;;;-6.05;54.73;102560.44;6025822;29;20194;-77
2021/12/21 03:52:29;;;;;;;1.23;1.23;;;;;;;-6.06;54.93;102556.06;6024597;29;20449;-77
2021/12/21 03:55:35;;;;;;;1.40;1.40;;;;;;;-6.17;55.74;102563.88;6025020;29;20202;-77
2021/12/21 03:58:39;;;;;;;1.30;1.30;;;;;;;-5.72;54.94;102560.19;6025763;29;20369;-77
2021/12/21 04:01:44;;;;;;;3.77;1.80;;;;;;;-5.89;54.94;102574.59;6026115;29;20275;-76
2021/12/21 04:04:49;;;;;;;1.13;1.13;;;;;;;-5.90;54.27;102564.88;6025399;29;20195;-77
2021/12/21 04:07:53;;;;;;;1.27;1.27;;;;;;;-5.70;54.59;102564.50;6024134;29;20538;-76
2021/12/21 04:10:59;;;;;;;1.13;1.13;;;;;;;-5.51;54.07;102565.03;6024841;29;20517;-77
2021/12/21 04:14:06;;;;;;;1.10;1.10;;;;;;;-6.05;54.83;102560.44;6025054;29;20202;-77
2021/12/21 04:17:17;;;;;;;1.40;1.40;;;;;;;-5.67;54.24;102553.56;6024736;29;20195;-76
2021/12/21 04:20:22;;;;;;;1.23;1.23;;;;;;;-5.77;54.27;102555.09;6023778;29;20206;-76
2021/12/21 04:23:26;;;;;;;1.30;1.30;;;;;;;-5.80;54.43;102563.34;6024311;29;20203;-77
2021/12/21 04:26:31;;;;;;;2.83;1.30;;;;;;;-5.69;54.56;102560.84;6023687;29;20448;-76
2021/12/21 04:29:36;;;;;;;0.97;0.97;;;;;;;-5.79;55.00;102559.69;6023698;29;20397;-76
2021/12/21 04:32:40;;;;;;;1.40;1.40;;;;;;;-5.73;55.78;102569.16;6024515;29;20266;-76
2021/12/21 04:35:44;;;;;;;1.40;1.40;;;;;;;-6.09;55.88;102566.94;6027419;29;20259;-77
2021/12/21 04:38:51;;;;;;;1.20;1.20;;;;;;;-5.82;56.99;102565.25;6027612;29;20200;-76
2021/12/21 04:41:56;;;;;;;1.30;1.30;;;;;;;-5.72;56.49;102552.16;6028944;29;20229;-76
2021/12/21 04:45:09;;;;;;;1.20;1.20;;;;;;;-5.94;55.96;102571.34;6028725;29;20250;-76
2021/12/21 04:48:14;;;;;;;1.20;1.20;;;;;;;-5.68;55.04;102556.34;6027349;29;20499;-76
2021/12/21 04:51:18;;;;;;;1.20;1.20;;;;;;;-5.58;56.10;102562.84;6028599;29;20248;-76
2021/12/21 04:54:23;;;;;;;1.10;1.10;;;;;;;-5.97;56.31;102559.03;6027696;29;20194;-76
2021/12/21 04:57:29;;;;;;;1.40;1.40;;;;;;;-5.81;55.41;102558.94;6028162;29;20195;-76
2021/12/21 05:00:33;;;;;;;1.20;1.20;;;;;;;-5.94;56.02;102560.66;6028068;29;20262;-76
2021/12/21 05:03:38;;;;;;;1.90;1.50;;;;;;;-5.78;56.24;102563.25;6027944;29;20225;-76
2021/12/21 05:06:42;;;;;;;1.57;1.57;;;;;;;-5.61;54.93;102553.19;6028209;29;20201;-76
2021/12/21 05:09:55;;;;;;;1.37;1.37;;;;;;;-5.63;55.85;102555.09;6027499;29;20210;-77
2021/12/21 05:13:00;;;;;;;1.20;1.20;;;;;;;-6.07;56.20;102559.69;6026949;29;20198;-76
2021/12/21 05:16:05;;;;;;;1.40;1.40;;;;;;;-5.95;56.87;102558.91;6028167;29;20209;-76
2021/12/21 05:19:10;;;;;;;1.10;1.10;;;;;;;-5.72;55.60;102550.31;6026743;29;20201;-76
2021/12/21 05:22:15;;;;;;;1.47;1.47;;;;;;;-6.21;56.64;102559.69;6027602;29;20218;-76
2021/12/21 05:25:19;;;;;;;0.90;0.90;;;;;;;-6.11;56.61;102563.53;6027546;29;20231;-76
2021/12/21 05:28:47;;;;;;;1.00;1.00;;;;;;;-5.71;56.40;102557.41;6026913;29;20251;-77
2021/12/21 05:31:52;;;;;;;2.33;1.50;;;;;;;-5.85;56.31;102565.44;6027760;29;20305;-77
2021/12/21 05:34:56;;;;;;;1.30;1.30;;;;;;;-5.83;56.46;102558.19;6026635;29;20477;-77
2021/12/21 05:38:04;;;;;;;1.30;1.30;;;;;;;-5.57;55.59;102549.38;6026376;29;20226;-77
2021/12/21 05:41:16;;;;;;;1.03;1.03;;;;;;;-5.86;56.34;102562.84;6026138;29;20544;-77
2021/12/21 05:44:24;;;;;;;1.00;1.00;;;;;;;-5.68;56.32;102557.22;6027395;29;20194;-77
2021/12/21 05:47:29;;;;;;;1.23;1.23;;;;;;;-5.81;56.17;102572.31;6025402;29;20515;-77
2021/12/21 05:50:33;;;;;;;1.53;1.53;;;;;;;-5.91;56.97;102566.69;6026497;29;20195;-77
2021/12/21 05:53:37;;;;;;;1.53;1.50;;;;;;;-5.44;55.78;102561.00;6026851;29;20238;-77
2021/12/21 05:56:42;;;;;;;1.27;1.27;;;;;;;-5.20;56.14;102563.06;6025697;29;20206;-77
2021/12/21 05:59:48;;;;;;;1.10;1.10;;;;;;;-5.33;56.88;102561.19;6026981;29;20217;-77
2021/12/21 06:02:52;;;;;;;1.30;1.30;;;;;;;-5.45;56.87;102556.63;6025549;29;20507;-77
2021/12/21 06:05:56;;;;;;;1.30;1.30;;;;;;;-5.28;56.69;102561.75;6026172;29;20305;-76
2021/12/21 06:09:05;;;;;;;1.13;1.13;;;;;;;-5.73;57.85;102559.31;6026524;29;20220;-77
2021/12/21 06:12:17;;;;;;;3.10;1.73;;;;;;;-5.72;58.06;102565.53;6026442;29;20248;-76
2021/12/21 06:15:31;;;;;;;1.77;1.77;;;;;;;-5.41;58.17;102570.66;6027577;29;20268;-77
2021/12/21 06:25:39;;;;;;;1.10;1.10;;;;;;;-5.39;57.71;102585.66;6026228;29;20232;-76
2021/12/21 06:28:44;;;;;;;1.50;1.50;;;;;;;-5.39;57.68;102580.31;6026346;29;20195;-77
2021/12/21 06:31:51;;;;;;;1.10;1.10;;;;;;;-5.52;58.70;102568.69;6026017;29;20238;-77
2021/12/21 06:34:56;;;;;;;1.00;1.00;;;;;;;-6.00;59.61;102561.03;6025726;29;20195;-77
2021/12/21 06:38:02;;;;;;;1.20;1.20;;;;;;;-5.55;58.30;102571.56;6024823;29;20537;-76
2021/12/21 06:41:07;;;;;;;1.37;1.37;;;;;;;-5.45;57.63;102567.31;6025344;29;20235;-77
2021/12/21 06:44:15;;;;;;;1.00;1.00;;;;;;;-5.54;58.43;102559.88;6024710;29;20420;-76
2021/12/21 06:54:05;;;;;;;1.30;1.30;;;;;;;-5.70;59.12;102575.19;6024728;29;20211;-77
2021/12/21 06:57:11;;;;;;;1.50;1.50;;;;;;;-6.27;59.85;102573.41;6024522;29;20485;-77
2021/12/21 07:00:17;;;;;;;1.27;1.27;;;;;;;-5.68;59.31;102573.28;6025358;29;20195;-77
2021/12/21 07:03:25;;;;;;;1.10;1.10;;;;;;;-5.75;59.60;102566.59;6025477;29;20222;-76
2021/12/21 07:06:30;;;;;;;1.20;1.20;;;;;;;-5.31;58.06;102567.28;6025579;29;20259;-76
2021/12/21 07:09:40;;;;;;;1.53;1.53;;;;;;;-5.81;59.56;102566.97;6025075;29;20210;-77
2021/12/21 07:19:31;;;;;;;1.10;1.10;;;;;;;-5.24;57.84;102582.97;6024825;29;20262;-76
2021/12/21 07:22:35;;;;;;;2.77;1.53;;;;;;;-5.16;57.14;102591.38;6025198;29;20218;-75
2021/12/21 07:25:39;;;;;;;1.23;1.23;;;;;;;-5.27;58.40;102606.31;6024935;29;20194;-77
2021/12/21 07:28:44;;;;;;;1.43;1.43;;;;;;;-5.27;57.89;102600.97;6024159;29;20580;-76
2021/12/21 07:31:48;;;;;;;1.20;1.20;;;;;;;-5.24;58.12;102599.03;6024846;29;20260;-76
2021/12/21 07:34:53;;;;;;;2.43;1.87;;;;;;;-5.16;58.34;102597.59;6024997;29;20198;-76
2021/12/21 07:38:00;;;;;;;1.77;1.40;;;;;;;-5.39;58.65;102601.72;6024906;29;20244;-76
2021/12/21 07:41:04;;;;;;;3.47;1.23;;;;;;;-5.71;59.36;102583.31;6023895;29;20194;-76
2021/12/21 07:44:10;;;;;;;2.30;2.20;;;;;;;-5.60;59.41;102597.75;6024978;29;20216;-76
2021/12/21 07:47:16;;;;;;;1.33;1.23;;;;;;;-5.26;58.62;102591.13;6024389;29;20194;-76
2021/12/21 07:50:22;;;;;;;1.40;1.40;;;;;;;-5.09;58.70;102587.34;6024963;29;20195;-76
2021/12/21 07:53:27;;;;;;;6.17;1.33;;;;;;;-4.89;58.21;102592.25;6024723;29;20195;-76
2021/12/21 07:56:31;;;;;;;1.57;1.53;;;;;;;-4.64;56.79;102584.28;6024711;29;20202;-76
2021/12/21 07:59:36;;;;;;;1.43;1.43;;;;;;;-4.88;57.19;102581.44;6024050;29;20226;-76
2021/12/21 08:02:45;;;;;;;1.40;1.40;;;;;;;-5.10;57.91;102585.59;6024669;29;20195;-76
2021/12/21 08:05:54;;;;;;;1.63;1.53;;;;;;;-5.16;58.13;102591.38;6023823;29;20550;-76
2021/12/21 08:09:00;;;;;;;1.40;1.40;;;;;;;-4.83;57.67;102589.16;6025455;29;20297;-75
2021/12/21 08:12:14;;;;;;;1.23;1.23;;;;;;;-5.21;58.45;102598.84;6028390;29;20274;-75
2021/12/21 08:15:18;;;;;;;4.67;1.77;;;;;;;-4.71;57.91;102599.06;6028911;29;20269;-76
2021/12/21 08:18:22;;;;;;;1.50;1.50;;;;;;;-4.89;58.00;102606.50;6028189;29;20387;-76
2021/12/21 08:21:29;;;;;;;1.40;1.40;;;;;;;-4.83;56.90;102615.97;6028220;29;20482;-76
2021/12/21 08:24:34;;;;;;;1.00;1.00;;;;;;;-5.37;58.43;102613.22;6029030;29;20384;-76
2021/12/21 08:27:38;;;;;;;2.10;1.87;;;;;;;-5.15;57.97;102617.19;6029678;29;20243;-76
2021/12/21 08:30:43;;;;;;;1.80;1.80;;;;;;;-5.58;59.63;102617.25;6029004;29;20298;-76
2021/12/21 08:33:47;;;;;;;1.27;1.27;;;;;;;-5.32;59.02;102619.16;6028542;29;20414;-76
2021/12/21 08:36:53;;;;;;;2.00;2.00;;;;;;;-5.33;58.76;102614.72;6029889;29;20222;-76
2021/12/21 08:39:57;;;;;;;1.87;1.87;;;;;;;-5.22;58.91;102613.19;6030078;29;20201;-78
2021/12/21 08:43:02;;;;;;;2.45;1.90;;;;;;;-5.03;58.80;102614.59;6029023;29;20371;-76
2021/12/21 08:46:07;;;;;;;2.93;1.30;;;;;;;-5.03;58.43;102621.78;6028615;29;20244;-76
2021/12/21 08:49:11;;;;;;;1.50;1.50;;;;;;;-5.09;58.01;102616.81;6027485;29;20385;-76
2021/12/21 08:52:17;;;;;;;1.60;1.50;;;;;;;-4.93;58.81;102625.56;6028483;29;20223;-76
2021/12/21 08:55:22;;;;;;;2.87;1.40;;;;;;;-5.16;58.52;102623.53;6028066;29;20208;-76
2021/12/21 08:58:27;;;;;;;1.47;1.47;;;;;;;-4.82;58.46;102629.25;6027016;29;20270;-76
2021/12/21 09:01:31;;;;;;;1.43;1.43;;;;;;;-5.02;58.94;102626.16;6028265;29;20194;-76
2021/12/21 09:04:37;;;;;;;3.13;1.77;;;;;;;-4.73;58.69;102633.16;6027518;29;20222;-76
2021/12/21 09:07:44;;;;;;;1.70;1.60;;;;;;;-4.79;58.78;102636.25;6026896;29;20227;-76
2021/12/21 09:10:48;;;;;;;1.03;1.03;;;;;;;-4.89;59.03;102629.75;6026510;29;20549;-76
2021/12/21 09:13:52;;;;;;;1.70;1.70;;;;;;;-4.86;58.66;102642.97;6028199;29;20203;-76
2021/12/21 09:16:56;;;;;;;1.73;1.60;;;;;;;-5.13;59.78;102634.03;6026657;29;20410;-76
2021/12/21 09:20:01;;;;;;;1.90;1.70;;;;;;;-4.90;59.45;102634.25;6026792;29;20262;-76
2021/12/21 09:23:22;;;;;;;1.67;1.67;;;;;;;-4.80;59.04;102642.56;6027539;29;20195;-76
2021/12/21 09:26:28;;;;;;;1.50;1.50;;;;;;;-4.78;59.12;102640.66;6026805;29;20225;-76
2021/12/21 09:29:32;;;;;;;1.67;1.67;;;;;;;-5.09;59.61;102630.19;6027982;29;20226;-76
2021/12/21 09:32:36;;;;;;;2.00;1.40;;;;;;;-4.79;59.79;102638.91;6027778;29;20194;-76
2021/12/21 09:35:41;;;;;;;6.03;2.20;;;;;;;-5.20;60.09;102627.34;6028259;29;20199;-76
2021/12/21 09:38:47;;;;;;;3.23;1.57;;;;;;;-5.06;59.98;102630.00;6026798;29;20428;-76
2021/12/21 09:41:51;;;;;;;1.80;1.80;;;;;;;-4.69;59.00;102640.03;6011464;29;20251;-76
2021/12/21 09:44:57;;;;;;;6.73;2.00;;;;;;;-5.07;60.32;102625.59;6027807;29;20219;-76
2021/12/21 09:48:01;;;;;;;1.27;1.27;;;;;;;-5.21;60.17;102631.00;6027291;29;20316;-75
2021/12/21 09:51:06;;;;;;;9.57;2.00;;;;;;;-5.00;60.30;102624.25;6027203;29;20412;-76
2021/12/21 09:54:17;;;;;;;2.67;1.80;;;;;;;-4.71;58.74;102625.88;6027465;29;20502;-76
2021/12/21 09:57:22;;;;;;;2.17;1.57;;;;;;;-4.55;59.10;102621.22;6028322;29;20231;-76
2021/12/21 10:00:29;;;;;;;1.63;1.63;;;;;;;-4.23;58.21;102617.22;6028348;29;20195;-77
2021/12/21 10:03:33;;;;;;;1.67;1.67;;;;;;;-4.46;59.26;102615.22;6028008;29;20233;-76
2021/12/21 10:06:47;;;;;;;3.90;2.27;;;;;;;-4.39;58.96;102611.19;6026261;29;20219;-76
2021/12/21 10:10:05;;;;;;;1.40;1.40;;;;;;;-4.75;60.72;102613.66;6025981;29;20212;-76
2021/12/21 10:13:14;;;;;;;1.60;1.60;;;;;;;-4.67;60.13;102617.53;6027131;29;20232;-76
2021/12/21 10:16:20;;;;;;;1.70;1.60;;;;;;;-4.74;60.65;102615.34;6027008;29;20207;-76
2021/12/21 10:19:25;;;;;;;1.50;1.50;;;;;;;-4.59;60.29;102611.66;6027074;29;20195;-76
2021/12/21 10:22:29;;;;;;;7.53;2.23;;;;;;;-4.44;59.86;102613.34;6026561;29;20282;-76
2021/12/21 10:25:41;;;;;;;1.93;1.83;;;;;;;-4.53;60.15;102619.28;6026729;29;20286;-76
2021/12/21 10:28:49;;;;;;;2.40;2.30;;;;;;;-4.55;60.36;102615.88;6025553;29;20545;-76
2021/12/21 10:31:53;;;;;;;1.77;1.73;;;;;;;-4.66;61.23;102624.63;6026270;29;20202;-77
2021/12/21 10:35:00;;;;;;;2.47;2.47;;;;;;;-4.66;61.07;102623.75;6026819;29;20196;-77
2021/12/21 10:38:05;;;;;;;6.50;1.87;;;;;;;-4.20;59.13;102625.06;6025417;29;20199;-77
2021/12/21 10:41:13;;;;;;;3.30;3.20;;;;;;;-4.29;59.57;102635.56;6026527;29;20195;-77
2021/12/21 10:44:19;;;;;;;3.13;3.03;;;;;;;-4.19;59.41;102629.47;6025304;29;20476;-77
2021/12/21 10:47:24;;;;;;;2.13;2.03;;;;;;;-4.13;59.26;102634.41;6026497;29;20244;-77
2021/12/21 10:50:32;;;;;;;4.67;3.13;;;;;;;-4.36;59.92;102620.88;6026944;29;20224;-77
2021/12/21 10:53:37;;;;;;;2.77;2.63;;;;;;;-4.36;59.59;102627.06;6025295;29;20192;-76
2021/12/21 10:56:44;;;;;;;6.90;4.13;;;;;;;-4.40;59.95;102622.88;6025244;29;20408;-77
2021/12/21 10:59:50;;;;;;;4.10;3.77;;;;;;;-4.12;59.18;102624.53;6025933;29;20196;-78
2021/12/21 11:02:54;;;;;;;4.00;3.20;;;;;;;-4.06;59.43;102625.00;6025985;29;20195;-77
2021/12/21 11:06:15;;;;;;;4.50;4.23;;;;;;;-4.42;60.27;102627.50;6025233;29;20222;-77
2021/12/21 11:09:28;;;;;;;3.40;3.30;;;;;;;-4.26;60.28;102633.56;6025970;29;20448;-77
2021/12/21 11:12:42;;;;;;;7.07;6.33;;;;;;;-4.35;60.77;102611.84;6024797;29;20520;-77
2021/12/21 11:15:52;;;;;;;5.73;5.23;;;;;;;-4.57;61.45;102623.16;6024683;29;20535;-77
2021/12/21 11:18:57;;;;;;;5.83;5.43;;;;;;;-3.95;59.76;102609.97;6024611;29;20228;-77
2021/12/21 11:22:02;;;;;;;6.03;5.33;;;;;;;-4.26;60.29;102612.09;6024992;29;20202;-77
2021/12/21 11:25:09;;;;;;;6.83;6.37;;;;;;;-4.31;60.60;102624.94;6024513;29;20227;-77
2021/12/21 11:28:18;;;;;;;5.27;4.83;;;;;;;-4.32;60.23;102607.13;6025595;29;20194;-77
2021/12/21 11:31:24;;;;;;;10.20;7.97;;;;;;;-3.92;59.45;102620.50;6025758;29;20220;-76
2021/12/21 11:34:33;;;;;;;17.27;11.33;;;;;;;-3.98;59.38;102620.91;6024933;29;20199;-76
2021/12/21 11:37:36;;;;;;;13.80;11.27;;;;;;;-3.92;58.91;102617.81;6025475;29;20198;-76
2021/12/21 11:40:43;;;;;;;11.77;8.43;;;;;;;-4.03;58.93;102624.75;6025055;29;20195;-76
2021/12/21 11:43:59;;;;;;;7.37;6.63;;;;;;;-3.91;58.91;102624.91;6025571;29;20390;-75
2021/12/21 11:47:08;;;;;;;10.33;9.60;;;;;;;-4.02;59.12;102614.91;6029394;29;20225;-75
2021/12/21 11:50:13;;;;;;;7.40;6.83;;;;;;;-3.95;58.80;102615.34;6029556;29;20195;-75
2021/12/21 11:53:18;;;;;;;5.13;4.67;;;;;;;-3.69;58.71;102622.44;6029752;29;20226;-75
2021/12/21 11:56:25;;;;;;;7.27;6.57;;;;;;;-4.07;59.31;102642.06;6028676;29;20202;-75
2021/12/21 11:59:32;;;;;;;5.63;5.17;;;;;;;-4.01;59.16;102633.59;6029581;29;20223;-75
2021/12/21 12:02:37;;;;;;;9.30;8.40;;;;;;;-3.82;59.09;102637.69;6028164;29;20482;-76
2021/12/21 12:05:50;;;;;;;10.17;9.07;;;;;;;-3.49;58.69;102635.31;6029187;29;20223;-75
2021/12/21 12:09:00;;;;;;;21.10;10.87;;;;;;;-3.55;58.83;102641.97;6029601;29;20273;-76
2021/12/21 12:12:07;;;;;;;20.67;13.03;;;;;;;-3.83;59.67;102644.00;6029180;29;20253;-76
2021/12/21 12:15:17;;;;;;;19.13;11.90;;;;;;;-3.81;59.91;102639.38;6028526;29;20267;-75
2021/12/21 12:18:24;;;;;;;17.33;10.20;;;;;;;-3.74;59.57;102643.34;6029203;29;20192;-75
2021/12/21 12:21:29;;;;;;;12.80;8.40;;;;;;;-3.74;59.01;102643.34;6028740;29;20255;-75
2021/12/21 12:24:38;;;;;;;14.07;10.10;;;;;;;-3.97;59.73;102644.13;6028244;29;20192;-76
2021/12/21 12:27:44;;;;;;;23.73;14.03;;;;;;;-3.87;59.19;102640.66;6027947;29;20578;-75
2021/12/21 12:30:51;;;;;;;18.33;13.30;;;;;;;-3.58;58.44;102635.97;6028688;29;20198;-76
2021/12/21 12:33:55;;;;;;;13.50;9.83;;;;;;;-3.72;59.26;102644.13;6029091;29;20199;-76
2021/12/21 12:37:00;;;;;;;9.73;8.77;;;;;;;-3.54;58.67;102637.47;6028964;29;20296;-75
2021/12/21 12:40:09;;;;;;;10.40;8.17;;;;;;;-3.34;58.08;102639.59;6028237;29;20204;-75
2021/12/21 12:43:17;;;;;;;15.17;10.37;;;;;;;-3.38;57.89;102646.16;6027626;29;20422;-76
2021/12/21 12:46:29;;;;;;;15.23;10.80;;;;;;;-3.66;59.03;102652.59;6027479;29;20219;-76
2021/12/21 12:49:36;;;;;;;7.00;6.33;;;;;;;-3.98;59.61;102654.00;6028469;29;20199;-75
2021/12/21 12:52:50;;;;;;;8.03;6.70;;;;;;;-3.85;59.82;102649.50;6027927;29;20196;-75
2021/12/21 12:55:58;;;;;;;12.97;9.17;;;;;;;-3.75;59.58;102649.72;6028569;29;20196;-75
2021/12/21 12:59:18;;;;;;;9.63;7.37;;;;;;;-3.66;59.17;102649.06;6011310;29;20212;-75
2021/12/21 13:02:24;;;;;;;4.03;3.93;;;;;;;-3.45;58.62;102652.94;6028417;29;20232;-75
2021/12/21 13:05:35;;;;;;;7.37;6.63;;;;;;;-3.66;59.41;102654.44;6028115;29;20199;-75
2021/12/21 13:08:42;;;;;;;5.50;5.10;;;;;;;-3.72;59.75;102652.19;6028256;29;20207;-75
2021/12/21 13:11:49;;;;;;;15.97;10.80;;;;;;;-3.79;59.91;102658.94;6027117;29;20303;-75
2021/12/21 13:14:54;;;;;;;27.07;15.13;;;;;;;-3.81;60.37;102660.88;6027584;29;20199;-75
2021/12/21 13:18:02;;;;;;;34.17;17.47;;;;;;;-3.89;60.55;102657.84;6027594;29;20196;-75
2021/12/21 13:21:18;;;;;;;22.10;11.13;;;;;;;-4.05;61.17;102669.63;6026955;29;20192;-75
2021/12/21 13:24:24;;;;;;;11.80;8.83;;;;;;;-3.76;60.38;102674.81;6027556;29;20193;-76
2021/12/21 13:27:28;;;;;;;20.30;10.10;;;;;;;-3.66;60.36;102675.91;6026613;29;20218;-76
2021/12/21 13:30:34;;;;;;;7.23;6.40;;;;;;;-4.08;60.98;102677.06;6026793;29;20200;-76
2021/12/21 13:33:41;;;;;;;3.33;3.20;;;;;;;-4.11;61.44;102675.44;6027181;29;20236;-76
2021/12/21 13:36:49;;;;;;;3.23;3.13;;;;;;;-4.31;62.32;102678.56;6026659;29;20220;-76
2021/12/21 13:39:57;;;;;;;4.40;4.17;;;;;;;-3.74;60.71;102678.25;6026417;29;20487;-76
2021/12/21 13:43:11;;;;;;;2.67;2.57;;;;;;;-3.46;59.99;102667.31;6027210;29;20266;-76
2021/12/21 13:46:16;;;;;;;2.57;2.47;;;;;;;-3.96;61.17;102683.41;6027214;29;20201;-76
2021/12/21 13:49:21;;;;;;;2.40;2.20;;;;;;;-3.98;60.79;102674.59;6025934;29;20254;-76
2021/12/21 13:52:28;;;;;;;2.37;2.23;;;;;;;-3.90;61.15;102683.00;6026858;29;20192;-76
2021/12/21 13:55:36;;;;;;;1.90;1.90;;;;;;;-3.84;61.24;102666.44;6027229;29;20192;-77
2021/12/21 13:58:40;;;;;;;3.00;1.97;;;;;;;-3.95;61.37;102674.41;6026810;29;20197;-76
2021/12/21 14:01:47;;;;;;;2.30;2.20;;;;;;;-3.77;60.80;102665.06;6027455;29;20199;-76
2021/12/21 14:05:01;;;;;;;9.83;2.37;;;;;;;-3.80;60.93;102673.34;6027052;29;20259;-77
2021/12/21 14:08:06;;;;;;;2.20;2.00;;;;;;;-3.86;61.54;102684.47;6025256;29;20238;-77
2021/12/21 14:11:12;;;;;;;2.10;2.00;;;;;;;-3.85;61.26;102691.59;6026028;29;20304;-77
2021/12/21 14:14:18;;;;;;;1.77;1.77;;;;;;;-4.00;62.42;102693.50;6026454;29;20199;-77
2021/12/21 14:17:27;;;;;;;1.53;1.50;;;;;;;-4.08;62.60;102691.31;6027566;29;20203;-77
2021/12/21 14:20:33;;;;;;;6.47;2.17;;;;;;;-3.81;61.07;102685.03;6027210;29;20513;-77
2021/12/21 14:23:40;;;;;;;2.23;2.13;;;;;;;-3.57;60.61;102691.41;6027855;29;20203;-78
2021/12/21 14:26:49;;;;;;;2.17;2.17;;;;;;;-3.98;62.29;102691.56;6028665;29;20283;-77
2021/12/21 14:29:53;;;;;;;1.97;1.93;;;;;;;-3.84;61.81;102699.53;6028069;29;20259;-77
2021/12/21 14:33:21;;;;;;;2.10;2.10;;;;;;;-3.99;61.84;102695.19;6027111;29;20199;-77
2021/12/21 14:36:27;;;;;;;4.10;1.93;;;;;;;-4.06;61.84;102699.28;6028146;29;20220;-77
2021/12/21 14:39:33;;;;;;;1.60;1.60;;;;;;;-4.74;63.30;102701.13;6025831;29;20421;-77
2021/12/21 14:42:37;;;;;;;1.90;1.80;;;;;;;-4.33;62.85;102701.97;6025755;29;20460;-77
2021/12/21 14:45:42;;;;;;;2.17;2.07;;;;;;;-4.12;62.23;102699.66;6024994;29;20510;-76
2021/12/21 14:48:57;;;;;;;5.40;2.10;;;;;;;-4.19;61.86;102701.91;6025879;29;20219;-76
2021/12/21 14:52:17;;;;;;;2.10;1.90;;;;;;;-4.17;62.20;102701.81;6024599;29;20193;-76
2021/12/21 14:55:25;;;;;;;2.20;1.63;;;;;;;-4.23;61.89;102695.03;6025521;29;20199;-76